Time;durP1;ratioP1;P1;durP2;ratioP2;P2;SDS_P1;SDS_P2;PMS_P1;PMS_P2;Temp;Humidity;BMP_temperature;BMP_pressure;BME280_temperature;BME280_humidity;BME280_pressure;Samples;Min_cycle;Max_cycle;Signal;HPM_P1;HPM_P2
2023/12/14 00:02:01;;;;;;;9.73;4.25;;;4.60;99.90;;;;;;5044767;28;20052;-85
2023/12/14 00:04:27;;;;;;;11.00;4.40;;;4.60;99.90;;;;;;5062727;28;20078;-84
2023/12/14 00:06:52;;;;;;;10.68;4.10;;;4.60;99.90;;;;;;5029725;28;20040;-84
2023/12/14 00:09:18;;;;;;;10.05;4.22;;;5.00;99.90;;;;;;5046590;28;20032;-84
2023/12/14 00:11:44;;;;;;;10.52;3.88;;;4.60;99.90;;;;;;5063748;28;20040;-85
2023/12/14 00:14:10;;;;;;;9.60;3.58;;;4.70;99.90;;;;;;5063242;28;20025;-85
2023/12/14 00:16:35;;;;;;;10.82;4.05;;;4.60;99.90;;;;;;5046518;28;20090;-85
2023/12/14 00:19:02;;;;;;;8.88;4.05;;;4.80;99.90;;;;;;5062476;28;20036;-84
2023/12/14 00:21:28;;;;;;;8.52;3.97;;;4.60;99.90;;;;;;5079682;28;20035;-85
2023/12/14 00:23:53;;;;;;;8.98;3.85;;;4.60;99.90;;;;;;5043916;28;20036;-84
2023/12/14 00:26:20;;;;;;;9.55;3.72;;;4.60;99.90;;;;;;5065606;28;20028;-85
2023/12/14 00:28:45;;;;;;;8.95;4.13;;;4.70;99.90;;;;;;5079967;28;20059;-84
2023/12/14 00:31:11;;;;;;;9.05;4.05;;;4.60;99.90;;;;;;5048747;28;20036;-84
2023/12/14 00:33:37;;;;;;;11.15;4.10;;;4.60;99.90;;;;;;5049214;28;20028;-84
2023/12/14 00:36:03;;;;;;;9.25;4.20;;;4.60;99.90;;;;;;5048889;28;20027;-84
2023/12/14 00:38:28;;;;;;;10.18;4.28;;;4.60;99.90;;;;;;5067119;28;20165;-84
2023/12/14 00:40:54;;;;;;;9.75;4.18;;;4.60;99.90;;;;;;5066163;28;20106;-84
2023/12/14 00:43:20;;;;;;;10.13;3.75;;;4.70;99.90;;;;;;5049070;28;20091;-84
2023/12/14 00:45:45;;;;;;;10.00;4.35;;;5.10;99.90;;;;;;5099411;28;20464;-84
2023/12/14 00:48:11;;;;;;;11.02;4.47;;;4.60;99.90;;;;;;5049396;28;20051;-85
2023/12/14 00:50:37;;;;;;;11.90;4.30;;;4.60;99.90;;;;;;5080705;28;20061;-85
2023/12/14 00:53:03;;;;;;;10.27;4.32;;;4.80;99.90;;;;;;5067004;28;20039;-85
2023/12/14 00:55:28;;;;;;;12.18;4.60;;;4.70;99.90;;;;;;5096333;28;20024;-84
2023/12/14 00:57:54;;;;;;;12.43;4.85;;;4.60;99.90;;;;;;5082824;28;20079;-84
2023/12/14 01:00:20;;;;;;;11.20;4.55;;;5.00;99.90;;;;;;5050392;28;20087;-85
2023/12/14 01:02:45;;;;;;;11.80;5.10;;;4.60;99.90;;;;;;5094768;28;20064;-84
2023/12/14 01:05:11;;;;;;;10.93;4.72;;;4.60;99.90;;;;;;5049816;28;20077;-84
2023/12/14 01:07:37;;;;;;;11.57;4.75;;;5.00;99.90;;;;;;5066126;28;20067;-85
2023/12/14 01:10:03;;;;;;;10.75;5.13;;;4.60;99.90;;;;;;5097609;28;20104;-85
2023/12/14 01:12:29;;;;;;;11.63;4.82;;;4.60;99.90;;;;;;5065560;28;20197;-85
2023/12/14 01:14:55;;;;;;;10.70;4.93;;;4.60;99.90;;;;;;5052851;28;20084;-84
2023/12/14 01:17:21;;;;;;;12.93;4.88;;;4.60;99.90;;;;;;5065324;28;20024;-85
2023/12/14 01:19:46;;;;;;;11.88;4.97;;;4.60;99.90;;;;;;5065116;28;20027;-85
2023/12/14 01:22:12;;;;;;;11.32;4.97;;;4.60;99.90;;;;;;5048383;28;20066;-84
2023/12/14 01:24:38;;;;;;;12.40;5.70;;;4.60;99.90;;;;;;5049837;28;20055;-84
2023/12/14 01:27:04;;;;;;;11.95;5.00;;;4.60;99.90;;;;;;5081467;28;20052;-85
2023/12/14 01:29:29;;;;;;;11.52;5.55;;;4.60;99.90;;;;;;5081265;28;20136;-84
2023/12/14 01:31:55;;;;;;;10.80;5.20;;;4.50;99.90;;;;;;5046000;28;20088;-85
2023/12/14 01:34:21;;;;;;;12.35;5.18;;;4.60;99.90;;;;;;5048289;28;20028;-84
2023/12/14 01:36:46;;;;;;;10.93;5.20;;;4.70;99.90;;;;;;5064381;28;20034;-85
2023/12/14 01:39:12;;;;;;;12.70;5.65;;;4.50;99.90;;;;;;5065532;28;20051;-85
2023/12/14 01:41:38;;;;;;;13.80;6.45;;;4.60;99.90;;;;;;5064537;28;20026;-85
2023/12/14 01:44:04;;;;;;;11.90;5.53;;;4.60;99.90;;;;;;5048334;28;20088;-84
2023/12/14 01:46:29;;;;;;;13.85;6.15;;;4.60;99.90;;;;;;5080939;28;20031;-84
2023/12/14 01:48:55;;;;;;;12.18;5.50;;;4.60;99.90;;;;;;5048545;28;20024;-84
2023/12/14 01:51:21;;;;;;;12.98;5.65;;;4.60;99.90;;;;;;5060368;28;20040;-84
2023/12/14 01:53:46;;;;;;;13.60;5.93;;;4.60;99.90;;;;;;5064397;28;20135;-85
2023/12/14 01:56:12;;;;;;;12.50;5.60;;;4.70;99.90;;;;;;5083042;28;20076;-85
2023/12/14 01:58:38;;;;;;;14.00;5.90;;;4.90;99.90;;;;;;5047625;28;20294;-84
2023/12/14 02:01:22;;;;;;;12.82;5.38;;;4.50;99.90;;;;;;5079702;28;20041;-85
2023/12/14 02:03:50;;;;;;;14.80;5.50;;;4.60;99.90;;;;;;5064085;28;20031;-84
2023/12/14 02:06:16;;;;;;;12.80;5.82;;;4.60;99.90;;;;;;5063059;28;20283;-84
2023/12/14 02:08:42;;;;;;;15.15;5.70;;;4.60;99.90;;;;;;5078680;28;20293;-84
2023/12/14 02:11:08;;;;;;;13.35;5.20;;;4.50;99.90;;;;;;5080492;28;20258;-85
2023/12/14 02:13:34;;;;;;;11.15;5.07;;;4.60;99.90;;;;;;5048514;28;20223;-84
2023/12/14 02:15:59;;;;;;;12.25;5.55;;;4.50;99.90;;;;;;5081375;28;20043;-84
2023/12/14 02:18:25;;;;;;;10.63;4.75;;;4.50;99.90;;;;;;5063773;28;20032;-84
2023/12/14 02:20:52;;;;;;;11.65;5.15;;;4.60;99.90;;;;;;5079984;28;20020;-84
2023/12/14 02:23:17;;;;;;;12.85;5.70;;;4.50;99.90;;;;;;5062460;28;20244;-85
2023/12/14 02:25:43;;;;;;;10.65;5.38;;;4.60;99.90;;;;;;5037998;28;20035;-84
2023/12/14 02:28:09;;;;;;;13.98;5.53;;;4.60;99.90;;;;;;5066436;28;20119;-84
2023/12/14 02:30:35;;;;;;;14.05;5.35;;;4.60;99.90;;;;;;5080221;28;20047;-84
2023/12/14 02:33:01;;;;;;;11.35;5.55;;;4.60;99.90;;;;;;5064048;28;20166;-84
2023/12/14 02:35:26;;;;;;;11.80;5.32;;;4.50;99.90;;;;;;5047352;28;20028;-85
2023/12/14 02:37:52;;;;;;;11.85;5.10;;;4.60;99.90;;;;;;5064298;28;20270;-84
2023/12/14 02:40:18;;;;;;;13.98;5.57;;;4.80;99.90;;;;;;5053319;28;20027;-85
2023/12/14 02:42:43;;;;;;;11.32;4.97;;;4.50;99.90;;;;;;5047959;28;20185;-84
2023/12/14 02:45:09;;;;;;;11.50;5.28;;;4.80;99.90;;;;;;5047518;28;20134;-84
2023/12/14 02:47:35;;;;;;;13.23;5.45;;;4.60;99.90;;;;;;5046856;28;20041;-84
2023/12/14 02:50:01;;;;;;;10.48;5.03;;;4.60;99.90;;;;;;5063843;28;20036;-85
2023/12/14 02:52:27;;;;;;;12.00;4.88;;;4.60;99.90;;;;;;5063229;28;20092;-84
2023/12/14 02:54:52;;;;;;;13.70;5.97;;;4.60;99.90;;;;;;5080792;28;20184;-84
2023/12/14 02:57:18;;;;;;;13.38;5.55;;;4.60;99.90;;;;;;5062740;28;20242;-84
2023/12/14 02:59:44;;;;;;;11.88;4.82;;;4.60;99.90;;;;;;5079201;28;20040;-84
2023/12/14 03:02:10;;;;;;;12.90;5.47;;;4.50;99.90;;;;;;5062870;28;20106;-84
2023/12/14 03:04:39;;;;;;;13.82;5.10;;;4.60;99.90;;;;;;5063527;28;20254;-84
2023/12/14 03:07:05;;;;;;;11.02;4.82;;;4.60;99.90;;;;;;5078553;28;20073;-84
2023/12/14 03:09:31;;;;;;;12.05;4.90;;;4.50;99.90;;;;;;5063562;28;20036;-84
2023/12/14 03:11:57;;;;;;;11.35;5.32;;;4.90;99.90;;;;;;5063869;28;20032;-84
2023/12/14 03:14:23;;;;;;;14.20;5.05;;;4.60;99.90;;;;;;5096058;28;20036;-85
2023/12/14 03:16:49;;;;;;;10.63;5.07;;;4.60;99.90;;;;;;5064903;28;20036;-84
2023/12/14 03:19:17;;;;;;;10.80;4.93;;;4.60;99.90;;;;;;5063479;28;20058;-84
2023/12/14 03:21:43;;;;;;;12.18;5.60;;;4.60;99.90;;;;;;5064159;28;20032;-84
2023/12/14 03:24:09;;;;;;;10.27;4.53;;;4.60;99.90;;;;;;5063641;28;20186;-85
2023/12/14 03:26:35;;;;;;;11.57;4.90;;;4.60;99.90;;;;;;5059877;28;20045;-84
2023/12/14 03:29:01;;;;;;;10.43;4.45;;;4.60;99.90;;;;;;5059635;28;20118;-84
2023/12/14 03:31:27;;;;;;;12.35;5.30;;;4.60;99.90;;;;;;5058130;28;20059;-84
2023/12/14 03:33:53;;;;;;;11.65;5.40;;;4.60;99.90;;;;;;5059866;28;20036;-84
2023/12/14 03:36:18;;;;;;;13.30;5.25;;;4.50;99.90;;;;;;5076242;28;20082;-84
2023/12/14 03:38:44;;;;;;;13.98;5.78;;;4.90;99.90;;;;;;5070904;28;20129;-84
2023/12/14 03:41:10;;;;;;;14.30;5.47;;;4.60;99.90;;;;;;5042979;28;20048;-85
2023/12/14 03:43:35;;;;;;;12.68;5.40;;;4.60;99.90;;;;;;5051668;28;20048;-85
2023/12/14 03:46:01;;;;;;;12.30;5.95;;;4.50;99.90;;;;;;5042553;28;20167;-84
2023/12/14 03:48:27;;;;;;;11.38;5.70;;;4.60;99.90;;;;;;5043652;28;20272;-84
2023/12/14 03:50:52;;;;;;;15.05;5.68;;;4.60;99.90;;;;;;5047295;28;20112;-84
2023/12/14 03:53:19;;;;;;;13.05;5.43;;;4.60;99.90;;;;;;5059702;28;20104;-85
2023/12/14 03:55:45;;;;;;;11.73;6.07;;;4.60;99.90;;;;;;5043212;28;20279;-85
2023/12/14 03:58:11;;;;;;;15.32;6.03;;;4.60;99.90;;;;;;5042767;28;20064;-85
2023/12/14 04:00:37;;;;;;;14.40;6.10;;;4.60;99.90;;;;;;5042177;28;20357;-84
2023/12/14 04:03:03;;;;;;;12.93;5.63;;;4.60;99.90;;;;;;5044133;28;20266;-84
2023/12/14 04:05:28;;;;;;;13.45;5.93;;;4.50;99.90;;;;;;5062115;28;20101;-84
2023/12/14 04:07:54;;;;;;;13.88;6.65;;;4.50;99.90;;;;;;5047005;28;20052;-84
2023/12/14 04:10:20;;;;;;;15.98;6.32;;;4.50;99.90;;;;;;5078160;28;20027;-84
2023/12/14 04:12:46;;;;;;;14.35;6.28;;;4.50;99.90;;;;;;5063569;28;20417;-84
2023/12/14 04:15:12;;;;;;;10.90;5.82;;;4.60;99.90;;;;;;5045968;28;20048;-85
2023/12/14 04:17:38;;;;;;;13.57;6.47;;;4.50;99.90;;;;;;5046519;28;20032;-84
2023/12/14 04:20:05;;;;;;;12.90;6.82;;;4.50;99.90;;;;;;5045798;28;20060;-84
2023/12/14 04:22:32;;;;;;;14.80;6.50;;;4.50;99.90;;;;;;5047043;28;20052;-84
2023/12/14 04:24:57;;;;;;;12.88;7.07;;;4.70;99.90;;;;;;5063234;28;20108;-84
2023/12/14 04:27:27;;;;;;;13.98;6.32;;;4.60;99.90;;;;;;5044484;28;20056;-84
2023/12/14 04:29:52;;;;;;;13.93;6.35;;;4.50;99.90;;;;;;5047757;28;20036;-84
2023/12/14 04:32:18;;;;;;;13.35;6.60;;;4.70;99.90;;;;;;5061339;28;20039;-84
2023/12/14 04:34:44;;;;;;;13.48;6.15;;;4.50;99.90;;;;;;5062767;28;20036;-84
2023/12/14 04:37:10;;;;;;;15.15;6.65;;;4.70;99.90;;;;;;5062143;28;20086;-84
2023/12/14 04:39:35;;;;;;;12.50;6.82;;;4.50;99.90;;;;;;5046079;28;20059;-84
2023/12/14 04:42:01;;;;;;;15.07;6.40;;;4.50;99.90;;;;;;5045817;28;20032;-84
2023/12/14 04:44:27;;;;;;;12.60;6.55;;;4.40;99.90;;;;;;5062361;28;20167;-84
2023/12/14 04:46:52;;;;;;;13.77;6.57;;;4.50;99.90;;;;;;5046010;28;20033;-84
2023/12/14 04:49:19;;;;;;;12.48;5.85;;;4.50;99.90;;;;;;5043362;28;20030;-84
2023/12/14 04:51:45;;;;;;;13.57;6.20;;;4.60;99.90;;;;;;5062877;28;20330;-85
2023/12/14 04:54:11;;;;;;;15.75;6.50;;;4.70;99.90;;;;;;5062693;28;20031;-84
2023/12/14 04:56:36;;;;;;;14.77;7.65;;;4.40;99.90;;;;;;5046085;28;20036;-84
2023/12/14 04:59:02;;;;;;;12.45;6.30;;;4.50;99.90;;;;;;5061957;28;20055;-84
2023/12/14 05:01:28;;;;;;;13.25;6.30;;;4.50;99.90;;;;;;5059724;28;20055;-84
2023/12/14 05:03:54;;;;;;;15.45;6.80;;;4.60;99.90;;;;;;5062044;28;20081;-85
2023/12/14 05:06:21;;;;;;;15.68;6.70;;;4.50;99.90;;;;;;5078403;28;20016;-84
2023/12/14 05:08:47;;;;;;;13.98;6.90;;;5.50;99.90;;;;;;5060050;28;20526;-85
2023/12/14 05:11:13;;;;;;;13.60;6.65;;;4.50;99.90;;;;;;5078464;28;21132;-84
2023/12/14 05:13:39;;;;;;;13.27;6.55;;;4.50;99.90;;;;;;5078667;28;20024;-84
2023/12/14 05:16:05;;;;;;;11.80;6.38;;;4.70;99.90;;;;;;5060252;28;20051;-84
2023/12/14 05:18:31;;;;;;;14.50;6.45;;;4.40;99.90;;;;;;5046029;28;20282;-84
2023/12/14 05:20:57;;;;;;;13.80;5.93;;;4.50;99.90;;;;;;5061446;28;20105;-84
2023/12/14 05:23:23;;;;;;;13.52;6.65;;;4.50;99.90;;;;;;5060847;28;20050;-85
2023/12/14 05:25:49;;;;;;;13.10;6.40;;;4.50;99.90;;;;;;5061777;28;20060;-84
2023/12/14 05:28:15;;;;;;;13.65;6.53;;;4.50;99.90;;;;;;5043974;28;20072;-84
2023/12/14 05:30:41;;;;;;;13.85;6.43;;;4.50;99.90;;;;;;5075616;28;20056;-84
2023/12/14 05:33:07;;;;;;;14.75;6.38;;;4.50;99.90;;;;;;5076170;28;20029;-85
2023/12/14 05:35:33;;;;;;;13.52;6.43;;;4.50;99.90;;;;;;5060918;28;20087;-85
2023/12/14 05:37:58;;;;;;;15.52;6.70;;;4.50;99.90;;;;;;5061352;28;20032;-84
2023/12/14 05:40:24;;;;;;;16.23;6.85;;;4.50;99.90;;;;;;5061108;28;20024;-84
2023/12/14 05:42:51;;;;;;;13.68;6.25;;;4.80;99.90;;;;;;5076667;28;20032;-84
2023/12/14 05:45:18;;;;;;;15.75;7.22;;;4.50;99.90;;;;;;5060457;28;20281;-84
2023/12/14 05:47:44;;;;;;;12.63;6.32;;;4.50;99.90;;;;;;5061097;28;20040;-85
2023/12/14 05:50:10;;;;;;;13.43;6.13;;;4.50;99.90;;;;;;5059295;28;20036;-84
2023/12/14 05:52:37;;;;;;;12.15;6.35;;;4.50;99.90;;;;;;5059407;28;20282;-85
2023/12/14 05:55:04;;;;;;;17.08;6.75;;;4.50;99.90;;;;;;5094803;28;20071;-84
2023/12/14 05:57:30;;;;;;;15.85;6.97;;;4.50;99.90;;;;;;5065477;28;20032;-86
2023/12/14 05:59:56;;;;;;;13.88;6.68;;;4.40;99.90;;;;;;5071994;28;20031;-84
2023/12/14 06:02:22;;;;;;;14.75;6.95;;;4.50;99.90;;;;;;5052896;28;20044;-84
2023/12/14 06:04:48;;;;;;;15.13;6.53;;;4.50;99.90;;;;;;5061096;28;20029;-84
2023/12/14 06:07:17;;;;;;;12.98;6.35;;;4.50;99.90;;;;;;5043939;28;20032;-84
2023/12/14 06:09:44;;;;;;;15.18;6.97;;;4.50;99.90;;;;;;5062609;28;20048;-84
2023/12/14 06:12:09;;;;;;;14.57;6.50;;;4.50;99.90;;;;;;5096648;28;20024;-84
2023/12/14 06:14:35;;;;;;;15.95;6.88;;;4.50;99.90;;;;;;5078771;28;20174;-84
2023/12/14 06:17:01;;;;;;;12.90;6.15;;;4.50;99.90;;;;;;5063477;28;20091;-84
2023/12/14 06:19:27;;;;;;;12.30;6.45;;;4.50;99.90;;;;;;5042793;28;20017;-84
2023/12/14 06:21:52;;;;;;;14.13;6.22;;;4.50;99.90;;;;;;5029448;28;20222;-84
2023/12/14 06:24:18;;;;;;;14.43;6.35;;;4.50;99.90;;;;;;5063265;28;20028;-84
2023/12/14 06:26:45;;;;;;;14.95;6.20;;;4.70;99.90;;;;;;5081206;28;20056;-84
2023/12/14 06:29:11;;;;;;;13.15;6.60;;;4.90;99.90;;;;;;5079229;28;20037;-84
2023/12/14 06:31:38;;;;;;;15.45;6.68;;;4.50;99.90;;;;;;5047016;28;20103;-84
2023/12/14 06:34:04;;;;;;;14.23;6.95;;;4.50;99.90;;;;;;5060438;28;20048;-84
2023/12/14 06:36:30;;;;;;;13.40;6.25;;;4.50;99.90;;;;;;5028216;28;20032;-84
2023/12/14 06:38:57;;;;;;;15.65;7.15;;;4.80;99.90;;;;;;5059209;28;20222;-84
2023/12/14 06:41:24;;;;;;;13.13;6.65;;;4.50;99.90;;;;;;5058711;28;20025;-84
2023/12/14 06:43:50;;;;;;;13.05;6.47;;;4.50;99.90;;;;;;5059422;28;20024;-84
2023/12/14 06:46:16;;;;;;;17.10;7.80;;;4.50;99.90;;;;;;5043663;28;20036;-84
2023/12/14 06:48:42;;;;;;;11.80;5.82;;;4.50;99.90;;;;;;5059860;28;20033;-84
2023/12/14 06:51:07;;;;;;;12.80;6.28;;;4.50;99.90;;;;;;5060001;28;20086;-84
2023/12/14 06:53:35;;;;;;;18.35;7.47;;;4.50;99.90;;;;;;5060028;28;20044;-84
2023/12/14 06:56:01;;;;;;;15.93;6.88;;;4.50;99.90;;;;;;5041732;28;20028;-84
2023/12/14 06:58:27;;;;;;;15.35;7.18;;;4.50;99.90;;;;;;5058813;28;21078;-84
2023/12/14 07:00:53;;;;;;;15.13;7.15;;;4.40;99.90;;;;;;5057711;28;20294;-84
2023/12/14 07:03:18;;;;;;;16.83;7.82;;;4.50;99.90;;;;;;5060361;28;20028;-85
2023/12/14 07:05:44;;;;;;;13.73;6.53;;;4.50;99.90;;;;;;5060004;28;20033;-85
2023/12/14 07:08:10;;;;;;;15.60;6.55;;;4.50;99.90;;;;;;5043053;28;20041;-84
2023/12/14 07:10:35;;;;;;;15.82;7.20;;;4.50;99.90;;;;;;5058936;28;20047;-84
2023/12/14 07:13:01;;;;;;;18.98;7.30;;;4.40;99.90;;;;;;5045288;28;20037;-84
2023/12/14 07:15:27;;;;;;;15.40;6.90;;;4.50;99.90;;;;;;5057778;28;20029;-85
2023/12/14 07:17:52;;;;;;;15.88;7.35;;;5.20;99.90;;;;;;5039423;28;20141;-84
2023/12/14 07:20:18;;;;;;;17.70;7.43;;;4.50;99.90;;;;;;5059387;28;20220;-84
2023/12/14 07:22:44;;;;;;;18.50;7.22;;;4.50;99.90;;;;;;5044995;28;20100;-84
2023/12/14 07:25:09;;;;;;;16.38;7.43;;;4.70;99.90;;;;;;5058729;28;20258;-84
2023/12/14 07:27:35;;;;;;;18.67;8.15;;;4.40;99.90;;;;;;5058797;28;20047;-84
2023/12/14 07:30:01;;;;;;;18.15;7.18;;;4.50;99.90;;;;;;5046088;28;20048;-84
2023/12/14 07:32:27;;;;;;;14.63;7.32;;;4.50;99.90;;;;;;5061326;28;20024;-84
2023/12/14 07:34:52;;;;;;;16.58;7.15;;;4.70;99.90;;;;;;5044398;28;20066;-84
2023/12/14 07:37:18;;;;;;;14.15;6.22;;;4.50;99.90;;;;;;5043914;28;20036;-84
2023/12/14 07:39:44;;;;;;;13.25;7.00;;;4.50;99.90;;;;;;5077874;28;20045;-84
2023/12/14 07:42:10;;;;;;;14.23;7.28;;;4.80;99.90;;;;;;5046025;28;20028;-84
2023/12/14 07:44:37;;;;;;;15.48;7.18;;;4.50;99.90;;;;;;5080423;28;20036;-84
2023/12/14 07:47:03;;;;;;;16.10;7.68;;;4.50;99.90;;;;;;5047227;28;20039;-84
2023/12/14 07:49:29;;;;;;;16.20;7.35;;;4.50;99.90;;;;;;5062994;28;20037;-84
2023/12/14 07:51:54;;;;;;;16.42;7.47;;;4.50;99.90;;;;;;5049836;28;20131;-84
2023/12/14 07:54:20;;;;;;;16.55;7.72;;;4.50;99.90;;;;;;5078308;28;20025;-84
2023/12/14 07:56:46;;;;;;;17.17;8.32;;;4.50;99.90;;;;;;5061037;28;20268;-84
2023/12/14 07:59:12;;;;;;;18.33;8.45;;;4.60;99.90;;;;;;5044345;28;21270;-84
2023/12/14 08:01:37;;;;;;;14.55;7.32;;;4.50;99.90;;;;;;5061357;28;20032;-84
2023/12/14 08:04:06;;;;;;;15.38;7.80;;;4.50;99.90;;;;;;5045263;28;20024;-84
2023/12/14 08:06:32;;;;;;;17.27;8.23;;;4.50;99.90;;;;;;5078272;28;20111;-85
2023/12/14 08:08:58;;;;;;;15.93;8.60;;;4.50;99.90;;;;;;5045331;28;20049;-85
2023/12/14 08:11:24;;;;;;;16.80;8.48;;;4.50;99.90;;;;;;5063329;28;20095;-84
2023/12/14 08:13:50;;;;;;;17.95;9.40;;;4.50;99.90;;;;;;5064962;28;20143;-84
2023/12/14 08:16:19;;;;;;;17.30;9.55;;;4.60;99.90;;;;;;5076602;28;20051;-84
2023/12/14 08:18:46;;;;;;;17.90;9.48;;;4.60;99.90;;;;;;5079099;28;20035;-84
2023/12/14 08:21:12;;;;;;;18.65;8.57;;;4.60;99.90;;;;;;5029190;28;20029;-84
2023/12/14 08:23:37;;;;;;;16.08;8.23;;;4.50;99.90;;;;;;5062884;28;20043;-84
2023/12/14 08:26:03;;;;;;;15.40;7.80;;;5.70;99.90;;;;;;5062971;28;20970;-84
2023/12/14 08:28:29;;;;;;;15.07;7.88;;;4.60;99.90;;;;;;5073087;28;20117;-84
2023/12/14 08:30:57;;;;;;;15.18;7.65;;;4.60;99.90;;;;;;5075924;28;20028;-84
2023/12/14 08:33:23;;;;;;;18.30;8.35;;;4.50;99.90;;;;;;5046902;28;20109;-84
2023/12/14 08:35:50;;;;;;;16.40;8.38;;;4.60;99.90;;;;;;5044568;28;20688;-84
2023/12/14 08:38:16;;;;;;;16.50;8.38;;;4.60;99.90;;;;;;5061079;28;20048;-84
2023/12/14 08:40:42;;;;;;;17.38;8.68;;;4.70;99.90;;;;;;5047947;28;20326;-84
2023/12/14 08:43:08;;;;;;;15.05;7.65;;;4.60;99.90;;;;;;5059414;28;20029;-83
2023/12/14 08:45:34;;;;;;;17.23;8.57;;;4.90;99.90;;;;;;5078053;28;20036;-84
2023/12/14 08:47:59;;;;;;;15.63;8.05;;;4.70;99.90;;;;;;5061663;28;20025;-83
2023/12/14 08:50:28;;;;;;;16.08;7.55;;;5.00;99.90;;;;;;5043490;28;20305;-84
2023/12/14 08:52:54;;;;;;;15.70;8.02;;;4.70;99.90;;;;;;5059451;28;20095;-84
2023/12/14 08:55:20;;;;;;;15.75;7.70;;;4.80;99.90;;;;;;5059696;28;20167;-84
2023/12/14 08:57:45;;;;;;;16.00;8.48;;;4.80;99.90;;;;;;5045895;28;20036;-84
2023/12/14 09:00:12;;;;;;;16.27;8.45;;;4.70;99.90;;;;;;5059627;28;20033;-84
2023/12/14 09:02:38;;;;;;;16.00;8.13;;;4.80;99.90;;;;;;5058037;28;20150;-84
2023/12/14 09:05:04;;;;;;;15.98;8.20;;;4.80;99.90;;;;;;5028910;28;20051;-84
2023/12/14 09:07:30;;;;;;;17.27;8.93;;;4.80;99.90;;;;;;5045998;28;20033;-85
2023/12/14 09:09:56;;;;;;;15.75;8.20;;;4.80;99.90;;;;;;5060621;28;20113;-83
2023/12/14 09:12:22;;;;;;;19.10;9.88;;;4.90;99.90;;;;;;5045452;28;20249;-84
2023/12/14 09:14:47;;;;;;;19.58;8.88;;;5.00;99.90;;;;;;5079113;28;20189;-84
2023/12/14 09:17:13;;;;;;;15.70;8.00;;;4.90;99.90;;;;;;5044988;28;20174;-84
2023/12/14 09:19:39;;;;;;;16.33;7.85;;;4.90;99.90;;;;;;5029981;28;20028;-84
2023/12/14 09:22:05;;;;;;;16.90;7.88;;;5.00;99.90;;;;;;5045579;28;20102;-83
2023/12/14 09:24:30;;;;;;;14.15;7.88;;;4.90;99.90;;;;;;5061700;28;20124;-84
2023/12/14 09:26:56;;;;;;;14.77;7.70;;;4.90;99.90;;;;;;5060495;28;20111;-84
2023/12/14 09:29:22;;;;;;;18.40;8.40;;;4.90;99.90;;;;;;5052567;28;20499;-84
2023/12/14 09:31:48;;;;;;;15.65;8.60;;;5.00;99.90;;;;;;5050941;28;20200;-84
2023/12/14 09:34:14;;;;;;;15.50;7.65;;;4.90;99.90;;;;;;5065390;28;20278;-84
2023/12/14 09:36:40;;;;;;;15.15;7.60;;;5.00;99.90;;;;;;5066234;28;20081;-84
2023/12/14 09:39:10;;;;;;;17.90;8.45;;;5.40;99.90;;;;;;5083942;28;20036;-84
2023/12/14 09:41:38;;;;;;;17.35;8.07;;;5.00;99.90;;;;;;5082122;28;20040;-84
2023/12/14 09:44:05;;;;;;;13.93;7.95;;;5.10;99.90;;;;;;5083184;28;20284;-84
2023/12/14 09:46:37;;;;;;;15.90;7.78;;;5.10;99.90;;;;;;5075374;28;20111;-84
2023/12/14 09:49:04;;;;;;;15.35;7.72;;;5.10;99.90;;;;;;5097148;28;20114;-84
2023/12/14 09:51:30;;;;;;;17.40;8.73;;;5.10;99.90;;;;;;5065567;28;20031;-84
2023/12/14 09:53:59;;;;;;;18.25;8.68;;;5.10;99.90;;;;;;5065011;28;20040;-84
2023/12/14 09:56:26;;;;;;;18.13;8.55;;;5.10;99.90;;;;;;5064443;28;20112;-84
2023/12/14 09:58:52;;;;;;;18.05;9.25;;;5.20;99.90;;;;;;5079491;28;20047;-84
2023/12/14 10:01:27;;;;;;;17.05;8.60;;;5.20;99.90;;;;;;5082709;28;20047;-84
2023/12/14 10:04:11;;;;;;;15.25;8.30;;;5.20;99.90;;;;;;5081014;28;20039;-84
2023/12/14 10:06:42;;;;;;;17.70;8.35;;;5.20;99.90;;;;;;5065209;28;20197;-84
2023/12/14 10:09:18;;;;;;;16.27;8.55;;;5.20;99.90;;;;;;5095510;28;20348;-83
2023/12/14 10:11:44;;;;;;;15.88;7.35;;;5.20;99.90;;;;;;5066247;28;20032;-83
2023/12/14 10:14:31;;;;;;;14.10;8.25;;;5.20;99.90;;;;;;5113498;28;20032;-84
2023/12/14 10:16:56;;;;;;;15.73;7.55;;;5.20;99.90;;;;;;5060282;28;20032;-84
2023/12/14 10:19:22;;;;;;;15.48;7.75;;;5.20;99.90;;;;;;5051384;28;20020;-84
2023/12/14 10:21:49;;;;;;;15.82;7.90;;;5.70;99.90;;;;;;5057669;28;20317;-84
2023/12/14 10:24:16;;;;;;;15.10;8.25;;;5.20;99.90;;;;;;5064235;28;20091;-84
2023/12/14 10:26:44;;;;;;;16.40;8.48;;;5.30;99.90;;;;;;5065525;28;20329;-84
2023/12/14 10:29:11;;;;;;;16.98;8.77;;;5.30;99.90;;;;;;5080342;28;20059;-84
2023/12/14 10:31:37;;;;;;;15.18;7.80;;;5.30;99.90;;;;;;5063344;28;20251;-84
2023/12/14 10:34:04;;;;;;;16.08;8.40;;;5.30;99.90;;;;;;5061985;28;20024;-84
2023/12/14 10:36:31;;;;;;;15.77;8.25;;;5.30;99.90;;;;;;5066604;28;20028;-83
2023/12/14 10:39:01;;;;;;;17.58;8.40;;;5.30;99.90;;;;;;5063446;28;20312;-83
2023/12/14 10:41:29;;;;;;;15.43;7.60;;;5.40;99.90;;;;;;5062985;28;20054;-84
2023/12/14 10:43:56;;;;;;;15.77;8.18;;;5.40;99.90;;;;;;5081057;28;20032;-84
2023/12/14 10:46:23;;;;;;;15.00;8.43;;;5.40;99.90;;;;;;5064399;28;20082;-83
2023/12/14 10:48:53;;;;;;;17.38;8.07;;;5.40;99.90;;;;;;5062435;28;20051;-84
2023/12/14 10:51:21;;;;;;;16.20;8.25;;;5.40;99.90;;;;;;5062501;28;20044;-84
2023/12/14 10:53:48;;;;;;;14.48;7.60;;;5.40;99.90;;;;;;5076838;28;20032;-84
2023/12/14 10:56:16;;;;;;;14.57;7.38;;;5.50;99.90;;;;;;5063674;28;20020;-84
2023/12/14 10:58:47;;;;;;;16.73;8.32;;;5.50;99.90;;;;;;5080570;28;20031;-84
2023/12/14 11:01:17;;;;;;;15.93;8.15;;;6.00;99.90;;;;;;5083839;28;20130;-84
2023/12/14 11:03:44;;;;;;;15.88;7.82;;;5.50;99.90;;;;;;5062604;28;20108;-86
2023/12/14 11:06:37;;;;;;;17.10;8.98;;;5.50;99.90;;;;;;5049653;28;20052;-84
2023/12/14 11:09:08;;;;;;;15.90;8.10;;;5.60;99.90;;;;;;5076349;28;20162;-84
2023/12/14 11:11:58;;;;;;;13.88;7.85;;;5.60;99.90;;;;;;5077234;28;20042;-84
2023/12/14 11:14:25;;;;;;;16.38;7.63;;;5.60;99.90;;;;;;5083627;28;20269;-84
2023/12/14 11:16:55;;;;;;;15.57;7.78;;;6.00;99.90;;;;;;5117223;28;20128;-84
2023/12/14 11:19:21;;;;;;;16.88;8.05;;;5.70;99.90;;;;;;5067662;28;20055;-83
2023/12/14 11:22:07;;;;;;;15.88;7.97;;;5.70;99.90;;;;;;5082306;28;20032;-83
2023/12/14 11:24:35;;;;;;;15.25;8.20;;;5.70;99.90;;;;;;5070270;28;20036;-84
2023/12/14 11:27:04;;;;;;;15.48;7.90;;;5.70;99.90;;;;;;5083088;28;20032;-83
2023/12/14 11:29:30;;;;;;;13.43;7.57;;;5.70;99.90;;;;;;5064809;28;20047;-84
2023/12/14 11:31:57;;;;;;;17.52;8.70;;;5.70;99.90;;;;;;5047260;28;20052;-84
2023/12/14 11:34:24;;;;;;;18.63;8.90;;;5.70;99.90;;;;;;5078769;28;20153;-85
2023/12/14 11:36:50;;;;;;;15.32;7.95;;;5.90;99.90;;;;;;5062097;28;20139;-84
2023/12/14 11:39:16;;;;;;;16.33;8.77;;;6.10;99.90;;;;;;5060253;28;20321;-83
2023/12/14 11:41:42;;;;;;;18.75;8.40;;;5.80;99.90;;;;;;5080809;28;20103;-84
2023/12/14 11:44:07;;;;;;;15.50;8.15;;;5.80;99.90;;;;;;5060615;28;20099;-85
2023/12/14 11:46:33;;;;;;;15.60;7.78;;;5.80;99.90;;;;;;5074867;28;20095;-84
2023/12/14 11:48:59;;;;;;;15.18;7.50;;;5.80;99.90;;;;;;5055855;28;20060;-84
2023/12/14 11:51:26;;;;;;;16.15;8.45;;;5.90;99.90;;;;;;5062685;28;20021;-84
2023/12/14 11:53:52;;;;;;;14.77;8.10;;;6.30;99.90;;;;;;5078093;28;20039;-84
2023/12/14 11:56:19;;;;;;;16.58;8.55;;;5.90;99.90;;;;;;5062075;28;20020;-84
2023/12/14 11:58:46;;;;;;;18.08;8.52;;;5.90;99.90;;;;;;5062090;28;20045;-84
2023/12/14 12:01:12;;;;;;;17.52;7.95;;;6.00;99.90;;;;;;5061537;28;20092;-84
2023/12/14 12:03:38;;;;;;;14.82;7.72;;;6.00;99.90;;;;;;5082777;28;20036;-84
2023/12/14 12:06:04;;;;;;;17.55;8.80;;;6.00;99.90;;;;;;5029628;28;20099;-84
2023/12/14 12:08:29;;;;;;;14.48;7.93;;;6.00;99.90;;;;;;5065385;28;20021;-84
2023/12/14 12:10:57;;;;;;;14.80;7.38;;;6.10;99.90;;;;;;5078354;28;20111;-84
2023/12/14 12:13:23;;;;;;;15.32;7.93;;;6.10;99.90;;;;;;5080838;28;20021;-84
2023/12/14 12:15:48;;;;;;;16.60;7.55;;;6.10;99.90;;;;;;5045179;28;20084;-84
2023/12/14 12:18:19;;;;;;;15.30;7.53;;;6.10;99.90;;;;;;5046851;28;20276;-84
2023/12/14 12:20:44;;;;;;;11.95;6.35;;;6.10;99.90;;;;;;5062314;28;20153;-85
2023/12/14 12:23:10;;;;;;;16.95;7.63;;;6.10;99.90;;;;;;5045363;28;20032;-84
2023/12/14 12:25:36;;;;;;;14.65;7.13;;;6.10;99.90;;;;;;5043974;28;20044;-84
2023/12/14 12:28:05;;;;;;;15.13;7.13;;;6.10;99.90;;;;;;5044929;28;20052;-84
2023/12/14 12:30:32;;;;;;;12.98;6.60;;;6.10;99.90;;;;;;5061751;28;20163;-85
2023/12/14 12:32:58;;;;;;;13.95;6.55;;;6.10;99.90;;;;;;5077280;28;20036;-84
2023/12/14 12:35:25;;;;;;;14.25;6.57;;;6.20;99.90;;;;;;5045173;28;20052;-84
2023/12/14 12:37:53;;;;;;;12.65;6.75;;;6.20;99.90;;;;;;5058931;28;20103;-85
2023/12/14 12:40:20;;;;;;;15.43;7.50;;;6.10;99.90;;;;;;5049005;28;20024;-84
2023/12/14 12:42:50;;;;;;;14.00;7.00;;;6.10;99.90;;;;;;5062190;28;20340;-84
2023/12/14 12:45:22;;;;;;;16.17;7.70;;;6.20;99.90;;;;;;5079261;28;20031;-84